createdAt,value
2022-11-18T00:02:42.756Z,401.90
2022-11-18T00:07:39.957Z,401.90
2022-11-18T00:12:39.105Z,401.90
2022-11-18T00:17:38.461Z,401.90
2022-11-18T00:22:39.777Z,378.40
2022-11-18T00:27:37.080Z,385.00
2022-11-18T00:32:36.442Z,402.30
2022-11-18T00:37:35.559Z,416.60
2022-11-18T00:42:36.930Z,436.40
2022-11-18T00:47:35.044Z,435.90
2022-11-18T00:52:33.305Z,434.40
2022-11-18T00:57:33.595Z,446.20
2022-11-18T01:02:32.903Z,416.50
2022-11-18T01:07:32.227Z,430.60
2022-11-18T01:12:30.404Z,451.90
2022-11-18T01:17:29.691Z,418.40
2022-11-18T01:22:28.995Z,413.90
2022-11-18T01:27:28.291Z,395.60
2022-11-18T01:32:28.591Z,413.30
2022-11-18T01:37:26.941Z,411.00
2022-11-18T01:42:27.034Z,417.90
2022-11-18T01:47:25.331Z,391.30
2022-11-18T01:52:24.692Z,418.30
2022-11-18T01:57:23.778Z,379.90
2022-11-18T02:02:24.083Z,432.10
2022-11-18T02:07:23.432Z,429.70
2022-11-18T02:12:21.594Z,434.00
2022-11-18T02:17:21.879Z,433.30
2022-11-18T02:22:23.179Z,460.00
2022-11-18T02:27:20.436Z,427.90
2022-11-18T02:32:19.730Z,430.20
2022-11-18T02:37:18.005Z,459.10
2022-11-18T02:42:19.498Z,427.00
2022-11-18T02:47:17.557Z,424.60
2022-11-18T02:52:16.252Z,415.50
2022-11-18T02:57:15.174Z,406.60
2022-11-18T03:02:15.460Z,421.80
2022-11-18T03:07:13.906Z,430.20
2022-11-18T03:12:13.104Z,422.80
2022-11-18T03:17:12.233Z,403.60
2022-11-18T03:22:12.489Z,414.00
2022-11-18T03:27:11.649Z,405.90
2022-11-18T03:32:09.783Z,411.80
2022-11-18T03:37:10.733Z,364.90
2022-11-18T03:42:08.237Z,403.50
2022-11-18T03:47:07.339Z,424.30
2022-11-18T03:52:08.666Z,423.70
2022-11-18T03:57:05.836Z,342.30
2022-11-18T04:02:04.957Z,450.50
2022-11-18T04:07:04.155Z,413.80
2022-11-18T04:12:03.358Z,412.70
2022-11-18T04:17:02.710Z,382.00
2022-11-18T04:22:01.804Z,424.60
2022-11-18T04:27:01.082Z,393.20
2022-11-18T04:31:59.408Z,420.60
2022-11-18T04:36:59.557Z,370.40
2022-11-18T04:42:01.850Z,421.00
2022-11-18T04:47:01.300Z,411.20
2022-11-18T04:51:57.380Z,422.60
2022-11-18T04:56:57.646Z,420.20
2022-11-18T05:01:55.921Z,358.00
2022-11-18T05:06:55.271Z,383.40
2022-11-18T05:11:53.393Z,440.60
2022-11-18T05:16:54.674Z,413.00
2022-11-18T05:21:53.022Z,406.00
2022-11-18T05:26:52.133Z,401.60
2022-11-18T05:31:51.428Z,399.60
2022-11-18T05:36:50.837Z,401.30
2022-11-18T05:41:49.934Z,426.00
2022-11-18T05:46:49.629Z,385.50
2022-11-18T05:51:48.563Z,393.00
2022-11-18T05:56:47.898Z,410.30
2022-11-18T06:01:47.443Z,411.70
2022-11-18T06:06:46.455Z,410.20
2022-11-18T06:11:45.624Z,419.30
2022-11-18T06:16:44.788Z,410.00
2022-11-18T06:21:44.045Z,435.80
2022-11-18T06:26:43.331Z,430.40
2022-11-18T06:31:42.643Z,430.30
2022-11-18T06:36:41.900Z,430.30
2022-11-18T06:42:00.181Z,426.80
2022-11-18T06:46:41.481Z,423.80
2022-11-18T06:51:39.621Z,424.10
2022-11-18T06:56:38.830Z,413.60
2022-11-18T07:01:37.952Z,397.40
2022-11-18T07:06:36.136Z,410.30
2022-11-18T07:11:38.311Z,411.20
2022-11-18T07:16:35.489Z,414.80
2022-11-18T07:21:35.807Z,417.90
2022-11-18T07:26:35.051Z,424.80
2022-11-18T07:31:34.536Z,420.90
2022-11-18T07:36:35.591Z,415.40
2022-11-18T07:41:31.810Z,442.10
2022-11-18T07:46:31.953Z,401.90
2022-11-18T07:51:32.134Z,396.10
2022-11-18T07:56:32.314Z,364.30
2022-11-18T08:01:29.427Z,353.60
2022-11-18T08:06:28.574Z,333.70
2022-11-18T08:11:26.846Z,333.70
2022-11-18T08:16:27.138Z,333.70
2022-11-18T08:21:25.436Z,333.70
2022-11-18T08:26:24.699Z,333.70
2022-11-18T08:31:24.965Z,333.70
2022-11-18T08:36:23.235Z,333.70
2022-11-18T08:41:25.482Z,333.70
2022-11-18T08:46:22.749Z,333.70
2022-11-18T08:51:21.204Z,333.70
2022-11-18T08:56:21.326Z,333.70
2022-11-18T09:01:20.694Z,333.70
2022-11-18T09:06:18.888Z,333.70
2022-11-18T09:11:18.184Z,333.70
2022-11-18T09:16:17.499Z,333.70
2022-11-18T09:21:17.826Z,333.70
2022-11-18T09:26:17.123Z,333.70
2022-11-18T09:31:15.479Z,333.70
2022-11-18T09:36:14.591Z,333.70
2022-11-18T09:41:13.914Z,333.70
2022-11-18T09:46:15.292Z,333.70
2022-11-18T09:51:16.439Z,333.70
2022-11-18T09:56:11.732Z,333.70
2022-11-18T10:01:10.918Z,333.70
2022-11-18T10:06:10.094Z,333.70
2022-11-18T10:11:10.366Z,333.70
2022-11-18T10:16:08.686Z,333.70
2022-11-18T10:21:07.983Z,333.70
2022-11-18T10:26:08.303Z,333.70
2022-11-18T10:31:07.629Z,333.70
2022-11-18T10:36:05.907Z,333.70
2022-11-18T10:41:06.227Z,333.70
2022-11-18T10:46:04.548Z,333.70
2022-11-18T10:51:03.892Z,333.70
2022-11-18T10:56:03.224Z,333.70
2022-11-18T11:01:02.538Z,333.70
2022-11-18T11:06:01.855Z,333.70
2022-11-18T11:11:01.118Z,333.70
2022-11-18T11:16:00.339Z,333.70
2022-11-18T11:21:00.515Z,333.70
2022-11-18T11:30:57.961Z,333.70
2022-11-18T11:35:59.172Z,333.70
2022-11-18T11:40:56.347Z,333.70
2022-11-18T11:45:57.542Z,333.70
2022-11-18T11:51:03.960Z,333.70
2022-11-18T11:55:54.943Z,333.70
2022-11-18T12:00:55.122Z,333.70
2022-11-18T12:05:52.281Z,333.70
2022-11-18T12:10:52.497Z,333.70
2022-11-18T12:15:50.717Z,333.70
2022-11-18T12:20:49.874Z,333.70
2022-11-18T12:25:49.043Z,333.70
2022-11-18T12:30:48.200Z,333.70
2022-11-18T12:35:48.411Z,333.70
2022-11-18T12:40:52.265Z,333.70
2022-11-18T12:45:46.807Z,333.70
2022-11-18T12:50:46.070Z,333.70
2022-11-18T12:55:46.223Z,333.70
2022-11-18T13:00:43.430Z,333.70
2022-11-18T13:05:43.583Z,333.70
2022-11-18T13:10:42.748Z,333.70
2022-11-18T13:15:41.969Z,333.70
2022-11-18T13:20:40.133Z,333.70
2022-11-18T13:25:39.315Z,333.70
2022-11-18T13:30:38.546Z,333.70
2022-11-18T13:35:37.773Z,333.70
2022-11-18T13:40:38.973Z,333.70
2022-11-18T13:45:37.158Z,333.70
2022-11-18T13:50:36.306Z,333.70
2022-11-18T13:55:34.487Z,333.70
2022-11-18T14:00:34.746Z,333.70
2022-11-18T14:05:32.976Z,333.70
2022-11-18T14:10:38.100Z,333.70
2022-11-18T14:15:32.381Z,333.70
2022-11-18T14:20:30.541Z,333.70
2022-11-18T14:25:30.732Z,333.70
2022-11-18T14:30:30.901Z,333.70
2022-11-18T14:35:33.347Z,333.70
2022-11-18T14:40:27.291Z,333.70
2022-11-18T14:45:27.477Z,333.70
2022-11-18T14:50:25.618Z,333.70
2022-11-18T14:55:25.854Z,333.70
2022-11-18T15:00:24.028Z,333.70
2022-11-18T15:05:23.207Z,333.70
2022-11-18T15:10:23.427Z,333.70
2022-11-18T15:15:23.589Z,333.70
2022-11-18T15:20:22.753Z,333.70
2022-11-18T15:25:21.932Z,333.70
2022-11-18T15:30:19.183Z,333.70
2022-11-18T15:35:19.388Z,333.70
2022-11-18T15:40:17.548Z,333.70
2022-11-18T15:45:16.732Z,333.70
2022-11-18T15:50:15.167Z,333.70
2022-11-18T15:55:15.279Z,333.70
2022-11-18T16:00:14.480Z,333.70
2022-11-18T16:05:13.692Z,333.70
2022-11-18T16:10:11.871Z,333.70
2022-11-18T16:15:13.077Z,333.70
2022-11-18T16:20:11.303Z,333.70
2022-11-18T16:25:10.468Z,333.70
2022-11-18T16:30:10.849Z,333.70
2022-11-18T16:35:09.837Z,333.70
2022-11-18T16:40:08.155Z,333.70
2022-11-18T16:45:07.152Z,333.70
2022-11-18T16:50:08.347Z,333.70
2022-11-18T16:55:06.514Z,333.70
2022-11-18T17:00:05.001Z,333.70
2022-11-18T17:05:04.988Z,333.70
2022-11-18T17:10:02.143Z,333.70
2022-11-18T17:15:04.630Z,333.70
2022-11-18T17:20:01.885Z,333.70
2022-11-18T17:25:05.332Z,333.70
2022-11-18T17:30:03.133Z,333.70
2022-11-18T17:35:00.467Z,333.70
2022-11-18T17:40:00.495Z,333.70
2022-11-18T17:44:57.669Z,333.70
2022-11-18T17:49:57.200Z,333.70
2022-11-18T17:54:57.072Z,333.70
2022-11-18T17:59:55.548Z,333.70
2022-11-18T18:04:55.798Z,333.70
2022-11-18T18:09:54.854Z,333.70
2022-11-18T18:14:54.047Z,333.70
2022-11-18T18:19:52.251Z,333.70
2022-11-18T18:24:51.464Z,333.70
2022-11-18T18:29:51.667Z,333.70
2022-11-18T18:34:51.926Z,333.70
2022-11-18T18:39:49.272Z,333.70
2022-11-18T18:44:50.559Z,333.70
2022-11-18T18:49:49.683Z,333.70
2022-11-18T18:54:48.074Z,333.70
2022-11-18T18:59:47.335Z,333.70
2022-11-18T19:04:45.461Z,333.70
2022-11-18T19:09:45.882Z,333.70
2022-11-18T19:14:45.176Z,333.70
2022-11-18T19:19:43.490Z,333.70
2022-11-18T19:24:51.023Z,333.70
2022-11-18T19:29:43.191Z,333.70
2022-11-18T19:34:41.365Z,333.70
2022-11-18T19:39:41.710Z,333.70
2022-11-18T19:44:40.686Z,333.70
2022-11-18T19:49:38.931Z,333.70
2022-11-18T19:54:37.776Z,333.70
2022-11-18T19:59:38.105Z,333.70
2022-11-18T20:04:38.460Z,333.70
2022-11-18T20:09:36.557Z,333.70
2022-11-18T20:14:35.820Z,333.70
2022-11-18T20:19:34.055Z,333.70
2022-11-18T20:24:33.593Z,333.70
2022-11-18T20:29:32.699Z,333.70
2022-11-18T20:34:31.754Z,333.70
2022-11-18T20:39:32.279Z,333.70
2022-11-18T20:44:30.321Z,333.70
2022-11-18T20:49:40.946Z,333.70
2022-11-18T20:54:29.779Z,333.70
2022-11-18T20:59:30.843Z,333.70
2022-11-18T21:04:28.210Z,333.70
2022-11-18T21:09:26.262Z,333.70
2022-11-18T21:14:26.780Z,333.70
2022-11-18T21:19:24.728Z,333.70
2022-11-18T21:24:23.924Z,333.70
2022-11-18T21:29:23.288Z,333.70
2022-11-18T21:34:23.339Z,333.70
2022-11-18T21:39:23.632Z,333.70
2022-11-18T21:44:21.795Z,333.70
2022-11-18T21:49:20.175Z,333.70
2022-11-18T21:54:21.305Z,333.70
2022-11-18T21:59:19.658Z,333.70
2022-11-18T22:04:19.728Z,333.70
2022-11-18T22:09:17.164Z,333.70
2022-11-18T22:14:16.129Z,333.70
2022-11-18T22:19:16.343Z,333.70
2022-11-18T22:24:15.516Z,333.70
2022-11-18T22:29:13.799Z,333.70
2022-11-18T22:34:13.984Z,333.70
2022-11-18T22:39:13.177Z,333.70
2022-11-18T22:44:11.357Z,333.70
2022-11-18T22:49:11.668Z,333.70
2022-11-18T22:59:10.169Z,333.70
2022-11-18T23:04:08.387Z,333.70
2022-11-18T23:09:08.573Z,333.70
2022-11-18T23:14:06.786Z,333.70
2022-11-18T23:19:06.009Z,333.70
2022-11-18T23:24:07.197Z,333.70
2022-11-18T23:29:04.406Z,333.70
2022-11-18T23:34:03.642Z,333.70
2022-11-18T23:39:03.835Z,333.70
2022-11-18T23:44:02.049Z,333.70
2022-11-18T23:49:02.235Z,333.70
2022-11-18T23:54:00.408Z,333.70
2022-11-18T23:59:00.673Z,333.70
